This is the latest recevied weather packets stored in our database for station/object KE8KMM. If no packets are shown the sender has not sent any weather packets the latest 10 day(s).
| Time | Temp. | Humidity | Pressure | Rain* | Wind** | Luminosity | Snow |
|---|---|---|---|---|---|---|---|
| 1777144966 | 20° C | 75% | 1009.5 hPa | 0 mm | - | 338 W/m² | - |
| 1777144664 | 19.44° C | 75% | 1009.6 hPa | 0 mm | - | 704 W/m² | - |
| 1777144360 | 19.44° C | 74% | 1009.5 hPa | 0 mm | - | 586 W/m² | - |
| 1777144057 | 19.44° C | 75% | 1009.7 hPa | 0 mm | - | 340 W/m² | - |
| 1777143753 | 18.89° C | 76% | 1009.4 hPa | 0 mm | - | 402 W/m² | - |
| 1777143450 | 18.33° C | 79% | 1009.7 hPa | 0 mm | - | 552 W/m² | - |
| 1777143146 | 18.33° C | 77% | 1009.6 hPa | 0 mm | - | 170 W/m² | - |
| 1777142841 | 18.33° C | 77% | 1009.4 hPa | 0 mm | - | 286 W/m² | - |
| 1777142539 | 18.33° C | 79% | 1009.5 hPa | 0 mm | - | 323 W/m² | - |
| 1777142237 | 17.78° C | 79% | 1009.4 hPa | 0 mm | - | 298 W/m² | - |
| 1777141934 | 17.78° C | 79% | 1009.5 hPa | 0 mm | - | 113 W/m² | - |
| 1777141632 | 18.33° C | 78% | 1009.4 hPa | 0 mm | - | 152 W/m² | - |
| 1777141330 | 18.33° C | 78% | 1009.4 hPa | 0 mm | - | 192 W/m² | - |
| 1777141027 | 18.33° C | 78% | 1009.3 hPa | 0 mm | - | 273 W/m² | - |
| 1777140724 | 17.78° C | 79% | 1009.7 hPa | 0 mm | - | 259 W/m² | - |
| 1777140420 | 17.78° C | 79% | 1009.4 hPa | 0 mm | - | 228 W/m² | - |
| 1777140118 | 18.89° C | 78% | 1009.3 hPa | 0 mm | - | 232 W/m² | - |
| 1777139815 | 18.89° C | 77% | 1009.3 hPa | 0 mm | - | 433 W/m² | - |
| 1777139511 | 18.33° C | 78% | 1009.2 hPa | 0 mm | - | 826 W/m² | - |
| 1777139211 | 17.78° C | 79% | 1009.4 hPa | 0 mm | - | 338 W/m² | - |
| 1777138909 | 18.33° C | 80% | 1009.3 hPa | 0 mm | - | 187 W/m² | - |
| 1777138605 | 18.33° C | 78% | 1009.1 hPa | 0 mm | - | 344 W/m² | - |
| 1777138301 | 17.78° C | 80% | 1009.5 hPa | 0 mm | - | 241 W/m² | - |
| 1777137997 | 17.78° C | 80% | 1009.5 hPa | 0 mm | - | 248 W/m² | - |
| 1777137693 | 17.78° C | 80% | 1009.6 hPa | 0 mm | - | 290 W/m² | - |
* Rain latest hour (hover to see other rain measurements)
** Current wind speed in m/s (hover to see current wind gust speed)